Time;durP1;ratioP1;P1;durP2;ratioP2;P2;SDS_P1;SDS_P2;PMS_P1;PMS_P2;Temp;Humidity;BMP_temperature;BMP_pressure;BME280_temperature;BME280_humidity;BME280_pressure;Samples;Min_cycle;Max_cycle;Signal;HPM_P1;HPM_P2
2020/12/20 00:01:07;;;;;;;42.95;19.67;;;;;;;4.05;84.41;100271.28;1770486;80;21349;-67
2020/12/20 00:03:35;;;;;;;38.73;19.67;;;;;;;4.04;84.45;100272.11;1799637;79;20958;-67
2020/12/20 00:06:05;;;;;;;40.65;17.92;;;;;;;4.02;84.49;100271.16;1794691;79;20938;-67
2020/12/20 00:08:33;;;;;;;39.55;19.02;;;;;;;4.02;84.51;100267.66;1811964;78;20982;-67
2020/12/20 00:11:03;;;;;;;37.50;19.05;;;;;;;4.02;84.57;100268.97;1721751;82;20958;-67
2020/12/20 00:13:32;;;;;;;41.70;18.48;;;;;;;4.02;84.62;100268.55;1800909;79;22253;-67
2020/12/20 00:16:00;;;;;;;43.78;19.87;;;;;;;4.01;84.66;100275.02;1744098;82;21501;-67
2020/12/20 00:18:28;;;;;;;42.13;19.02;;;;;;;4.00;84.72;100271.94;1813567;78;20931;-67
2020/12/20 00:20:57;;;;;;;38.20;18.35;;;;;;;3.99;84.78;100279.30;1815436;79;20930;-67
2020/12/20 00:23:25;;;;;;;36.30;18.37;;;;;;;3.97;84.82;100286.19;1816698;78;20926;-67
2020/12/20 00:25:53;;;;;;;36.98;17.50;;;;;;;3.96;84.88;100280.48;1816895;78;21318;-67
2020/12/20 00:28:22;;;;;;;37.75;18.73;;;;;;;3.96;84.92;100283.09;1816899;78;20942;-67
2020/12/20 00:30:51;;;;;;;39.80;17.90;;;;;;;3.94;84.94;100280.43;1806125;79;21081;-67
2020/12/20 00:33:20;;;;;;;38.05;17.85;;;;;;;3.92;84.98;100274.27;1799826;79;20923;-67
2020/12/20 00:35:51;;;;;;;32.10;16.75;;;;;;;3.93;85.00;100273.84;1800909;79;21489;-67
2020/12/20 00:38:20;;;;;;;36.65;18.42;;;;;;;3.94;85.05;100275.63;1808341;78;21217;-67
2020/12/20 00:40:49;;;;;;;38.40;18.25;;;;;;;3.93;85.05;100279.95;1736999;82;21034;-66
2020/12/20 00:43:20;;;;;;;33.53;16.80;;;;;;;3.91;85.08;100276.81;1784792;79;21541;-67
2020/12/20 00:45:50;;;;;;;33.85;17.40;;;;;;;3.90;85.10;100277.64;1784721;79;20986;-67
2020/12/20 00:48:19;;;;;;;36.83;17.45;;;;;;;3.89;85.11;100283.28;1793385;79;20974;-67
2020/12/20 00:50:49;;;;;;;32.45;16.60;;;;;;;3.87;85.04;100271.00;1786586;79;21194;-67
2020/12/20 00:53:19;;;;;;;35.65;17.17;;;;;;;3.84;85.03;100272.19;1740262;82;21152;-67
2020/12/20 00:55:51;;;;;;;35.23;16.57;;;;;;;3.83;85.05;100275.22;1784914;79;20982;-67
2020/12/20 00:58:22;;;;;;;36.60;16.87;;;;;;;3.78;85.05;100276.34;1792880;79;20981;-66
2020/12/20 01:00:52;;;;;;;35.05;16.90;;;;;;;3.77;85.06;100277.14;1802992;79;20923;-67
2020/12/20 01:03:21;;;;;;;33.42;16.55;;;;;;;3.78;85.11;100277.65;1718674;81;21155;-67
2020/12/20 01:05:51;;;;;;;33.45;16.65;;;;;;;3.79;85.16;100279.42;1735329;82;21545;-67
2020/12/20 01:08:21;;;;;;;31.97;16.45;;;;;;;3.79;85.20;100271.59;1737778;81;21142;-67
2020/12/20 01:10:50;;;;;;;32.70;15.72;;;;;;;3.78;85.18;100273.73;1787073;79;20962;-67
2020/12/20 01:13:20;;;;;;;27.73;14.73;;;;;;;3.78;85.17;100278.95;1789260;78;20971;-67
2020/12/20 01:15:50;;;;;;;33.28;16.35;;;;;;;3.78;85.16;100281.94;1795075;78;21365;-67
2020/12/20 01:18:19;;;;;;;29.35;15.30;;;;;;;3.77;85.15;100277.14;1801697;78;21061;-67
2020/12/20 01:20:48;;;;;;;31.07;14.47;;;;;;;3.77;85.16;100276.25;1709032;81;20970;-67
2020/12/20 01:23:18;;;;;;;30.80;14.38;;;;;;;3.75;85.18;100276.19;1769079;80;21061;-67
2020/12/20 01:25:48;;;;;;;27.13;13.93;;;;;;;3.76;85.16;100279.69;1783727;79;20938;-68
2020/12/20 01:28:18;;;;;;;26.70;14.35;;;;;;;3.75;85.09;100276.61;1737209;81;21385;-67
2020/12/20 01:30:47;;;;;;;26.40;14.07;;;;;;;3.72;85.04;100282.59;1751801;81;20975;-67
2020/12/20 01:33:18;;;;;;;29.07;13.55;;;;;;;3.70;84.99;100286.86;1729538;83;21080;-67
2020/12/20 01:35:57;;;;;;;26.25;13.60;;;;;;;3.69;85.01;100289.00;1806352;78;21480;-67
2020/12/20 01:38:25;;;;;;;26.55;13.75;;;;;;;3.69;85.01;100286.39;1729722;82;21117;-67
2020/12/20 01:40:54;;;;;;;26.65;14.40;;;;;;;3.68;84.99;100284.61;1808553;78;21324;-67
2020/12/20 01:43:22;;;;;;;23.70;13.58;;;;;;;3.67;84.97;100286.75;1743767;82;20990;-67
2020/12/20 01:45:52;;;;;;;25.90;13.65;;;;;;;3.67;85.00;100289.36;1738080;80;21090;-67
2020/12/20 01:48:23;;;;;;;23.75;12.18;;;;;;;3.64;84.96;100286.62;1746734;80;21162;-67
2020/12/20 01:50:52;;;;;;;23.73;13.45;;;;;;;3.64;84.97;100293.15;1803954;78;21073;-67
2020/12/20 01:53:21;;;;;;;25.37;13.03;;;;;;;3.64;84.97;100290.95;1738312;81;21269;-67
2020/12/20 01:55:51;;;;;;;25.70;13.43;;;;;;;3.61;84.98;100286.92;1705814;82;21082;-67
2020/12/20 01:58:20;;;;;;;25.90;12.40;;;;;;;3.59;85.04;100285.55;1692213;83;20914;-67
2020/12/20 02:00:59;;;;;;;23.65;12.80;;;;;;;3.61;85.09;100286.50;1828622;76;22765;-67
2020/12/20 02:03:47;;;;;;;22.75;12.85;;;;;;;3.57;85.11;100288.52;1775549;79;21449;-68
2020/12/20 02:06:19;;;;;;;28.47;13.93;;;;;;;3.56;85.12;100284.13;1804932;78;21556;-68
2020/12/20 02:08:50;;;;;;;24.32;11.88;;;;;;;3.57;85.13;100294.15;1789463;79;20934;-68
2020/12/20 02:11:19;;;;;;;23.80;12.10;;;;;;;3.56;85.19;100292.38;1780305;79;20923;-68
2020/12/20 02:13:51;;;;;;;21.03;11.83;;;;;;;3.57;85.22;100294.15;1783100;79;21224;-67
2020/12/20 02:16:25;;;;;;;22.80;13.43;;;;;;;3.57;85.21;100297.65;1800780;78;21706;-66
2020/12/20 02:18:55;;;;;;;19.90;11.50;;;;;;;3.53;85.17;100298.36;1809569;78;21181;-66
2020/12/20 02:21:25;;;;;;;21.33;11.93;;;;;;;3.46;85.14;100288.50;1809400;79;20994;-67
2020/12/20 02:23:56;;;;;;;;;;;;;;;3.42;85.18;100296.62;1806666;78;21619;-67
2020/12/20 02:26:29;;;;;;;22.42;11.08;;;;;;;3.42;85.21;100287.91;1778808;79;20135;-67
2020/12/20 02:28:59;;;;;;;18.40;10.75;;;;;;;3.42;85.24;100286.19;1747272;80;21543;-68
2020/12/20 02:31:30;;;;;;;20.43;10.48;;;;;;;3.41;85.30;100282.22;1782933;78;21355;-67
2020/12/20 02:34:00;;;;;;;21.90;11.15;;;;;;;3.42;85.32;100289.21;1785020;78;21197;-67
2020/12/20 02:36:31;;;;;;;20.60;9.85;;;;;;;3.38;85.33;100292.11;1779569;79;21002;-67
2020/12/20 02:39:02;;;;;;;18.60;10.20;;;;;;;3.35;85.36;100291.98;1800479;78;21065;-68
2020/12/20 02:41:36;;;;;;;22.65;10.95;;;;;;;3.34;85.41;100297.14;1776780;79;21484;-68
2020/12/20 02:44:07;;;;;;;21.83;11.37;;;;;;;3.35;85.44;100293.29;1777773;80;21354;-68
2020/12/20 02:46:38;;;;;;;22.73;11.28;;;;;;;3.36;85.51;100297.67;1779885;79;21026;-69
2020/12/20 02:49:09;;;;;;;21.37;11.95;;;;;;;3.36;85.56;100296.38;1806758;78;21065;-69
2020/12/20 02:51:39;;;;;;;22.42;12.03;;;;;;;3.36;85.58;100305.91;1808013;78;21001;-68
2020/12/20 02:54:11;;;;;;;17.20;10.25;;;;;;;3.36;85.58;100307.22;1806829;79;21001;-68
2020/12/20 02:56:45;;;;;;;21.05;12.25;;;;;;;3.38;85.59;100312.09;1777442;79;21189;-68
2020/12/20 02:59:30;;;;;;;20.40;12.58;;;;;;;3.41;85.58;100301.36;1811482;77;22760;-67
2020/12/20 03:01:59;;;;;;;22.02;12.03;;;;;;;3.39;85.55;100309.95;1795055;79;21787;-68
2020/12/20 03:04:30;;;;;;;17.98;11.08;;;;;;;3.38;85.52;100302.55;1790801;79;21775;-67
2020/12/20 03:07:00;;;;;;;19.23;11.53;;;;;;;3.37;85.47;100305.98;1801850;78;20955;-69
2020/12/20 03:09:30;;;;;;;19.50;11.83;;;;;;;3.38;85.44;100307.76;1764033;80;21484;-68
2020/12/20 03:12:00;;;;;;;18.23;11.18;;;;;;;3.39;85.40;100314.75;1790689;79;20915;-67
2020/12/20 03:14:31;;;;;;;14.90;9.40;;;;;;;3.39;85.36;100311.25;1785253;80;20938;-67
2020/12/20 03:17:02;;;;;;;15.87;9.20;;;;;;;3.38;85.33;100310.78;1744411;82;21355;-68
2020/12/20 03:19:32;;;;;;;17.55;10.18;;;;;;;3.39;85.30;100317.36;1766072;80;21163;-68
2020/12/20 03:22:02;;;;;;;20.15;11.15;;;;;;;3.40;85.23;100319.14;1781327;80;21077;-68
2020/12/20 03:24:50;;;;;;;22.87;12.33;;;;;;;3.43;85.19;100324.90;1823589;78;23413;-68
2020/12/20 03:27:23;;;;;;;25.20;13.68;;;;;;;3.34;85.17;100318.89;1639082;85;21217;-68
2020/12/20 03:30:04;;;;;;;27.42;13.70;;;;;;;3.33;85.18;100318.41;1857257;76;22343;-67
2020/12/20 03:32:52;;;;;;;26.25;14.63;;;;;;;3.26;85.20;100327.19;1816206;79;21485;-66
2020/12/20 03:35:36;;;;;;;22.42;13.40;;;;;;;3.29;85.27;100323.41;1842197;77;22400;-66
2020/12/20 03:38:06;;;;;;;23.27;14.23;;;;;;;3.24;85.30;100322.33;1807934;79;21006;-69
2020/12/20 03:40:37;;;;;;;22.95;12.45;;;;;;;3.24;85.36;100322.33;1801878;78;22630;-68
2020/12/20 03:43:06;;;;;;;23.05;12.68;;;;;;;3.22;85.41;100331.39;1798685;79;21596;-68
2020/12/20 03:45:37;;;;;;;24.95;13.70;;;;;;;3.19;85.45;100325.16;1798467;79;21176;-68
2020/12/20 03:48:05;;;;;;;27.80;14.85;;;;;;;3.18;85.48;100329.89;1804826;79;21666;-68
2020/12/20 03:50:36;;;;;;;24.65;13.75;;;;;;;3.19;85.55;100335.59;1803486;78;21081;-68
2020/12/20 03:53:05;;;;;;;29.30;15.00;;;;;;;3.21;85.61;100336.54;1801080;78;21230;-68
2020/12/20 03:55:47;;;;;;;25.95;13.55;;;;;;;3.26;85.61;100333.71;1813123;77;22830;-69
2020/12/20 03:58:16;;;;;;;26.60;14.63;;;;;;;3.23;85.60;100341.41;1777602;79;21065;-68
2020/12/20 04:00:44;;;;;;;27.93;14.35;;;;;;;3.24;85.59;100339.28;1779650;78;21409;-68
2020/12/20 04:03:14;;;;;;;30.52;15.28;;;;;;;3.23;85.59;100336.19;1804884;78;20923;-68
2020/12/20 04:05:44;;;;;;;35.35;16.97;;;;;;;3.23;85.63;100338.80;1808053;79;21049;-68
2020/12/20 04:08:13;;;;;;;32.88;15.58;;;;;;;3.21;85.66;100343.06;1808948;78;20927;-68
2020/12/20 04:10:43;;;;;;;30.08;15.35;;;;;;;3.16;85.63;100344.17;1807339;78;20926;-68
2020/12/20 04:13:12;;;;;;;32.40;15.48;;;;;;;3.14;85.64;100344.52;1806971;79;22124;-68
2020/12/20 04:15:41;;;;;;;32.60;16.25;;;;;;;3.12;85.64;100346.17;1809286;78;21269;-68
2020/12/20 04:18:09;;;;;;;31.60;15.93;;;;;;;3.13;85.68;100350.56;1776156;78;21603;-68
2020/12/20 04:20:38;;;;;;;30.60;14.93;;;;;;;3.14;85.71;100349.73;1783964;78;22193;-68
2020/12/20 04:23:08;;;;;;;31.15;15.30;;;;;;;3.16;85.72;100350.69;1779758;79;21084;-69
2020/12/20 04:25:38;;;;;;;27.85;14.93;;;;;;;3.19;85.70;100348.63;1776708;80;21407;-68
2020/12/20 04:28:31;;;;;;;32.60;15.25;;;;;;;3.25;85.68;100351.48;1816439;78;22875;-68
2020/12/20 04:31:01;;;;;;;30.70;14.28;;;;;;;3.21;85.68;100353.48;1775559;79;20990;-69
2020/12/20 04:33:31;;;;;;;29.85;14.65;;;;;;;3.21;85.66;100356.09;1779728;79;22199;-69
2020/12/20 04:36:02;;;;;;;32.90;15.63;;;;;;;3.24;85.65;100351.02;1777122;79;21485;-69
2020/12/20 04:38:30;;;;;;;30.82;15.80;;;;;;;3.23;85.62;100352.73;1777621;79;21544;-68
2020/12/20 04:40:59;;;;;;;28.45;14.58;;;;;;;3.25;85.63;100353.69;1777621;79;21575;-70
2020/12/20 04:43:28;;;;;;;33.55;15.78;;;;;;;3.27;85.62;100356.36;1777416;79;21002;-68
2020/12/20 04:45:58;;;;;;;28.87;14.70;;;;;;;3.27;85.59;100357.66;1779999;79;21367;-69
2020/12/20 04:48:39;;;;;;;32.90;15.63;;;;;;;3.27;85.57;100358.96;1776448;79;20977;-69
2020/12/20 04:51:09;;;;;;;30.08;15.60;;;;;;;3.29;85.56;100366.44;1777612;79;20942;-69
2020/12/20 04:53:38;;;;;;;29.80;15.03;;;;;;;3.30;85.52;100366.91;1777469;80;21025;-70
2020/12/20 04:56:10;;;;;;;29.50;15.40;;;;;;;3.29;85.51;100363.83;1781744;79;21164;-70
2020/12/20 04:58:53;;;;;;;31.55;14.87;;;;;;;3.34;85.53;100367.55;1819835;78;22862;-68
2020/12/20 05:01:22;;;;;;;26.57;14.13;;;;;;;3.31;85.49;100370.00;1774213;79;21484;-68
2020/12/20 05:03:51;;;;;;;31.30;14.85;;;;;;;3.32;85.45;100370.09;1777480;79;22344;-68
2020/12/20 05:06:20;;;;;;;30.45;15.08;;;;;;;3.35;85.43;100379.77;1791195;78;21053;-68
2020/12/20 05:09:06;;;;;;;27.55;13.62;;;;;;;3.35;85.39;100374.55;1806222;78;20922;-68
2020/12/20 05:11:41;;;;;;;32.20;14.13;;;;;;;3.30;85.26;100378.23;1808765;79;21014;-69
2020/12/20 05:14:13;;;;;;;26.35;13.62;;;;;;;3.30;85.20;100376.05;1809717;79;21607;-68
2020/12/20 05:16:43;;;;;;;27.13;13.38;;;;;;;3.31;85.16;100373.91;1797797;78;21473;-68
2020/12/20 05:19:16;;;;;;;28.45;13.45;;;;;;;3.29;85.13;100381.67;1808716;78;21505;-68
2020/12/20 05:21:48;;;;;;;25.50;13.93;;;;;;;3.29;85.13;100379.48;1808896;79;20998;-67
2020/12/20 05:24:25;;;;;;;25.75;13.10;;;;;;;3.26;85.09;100380.23;1807762;79;21474;-68
2020/12/20 05:26:55;;;;;;;26.73;13.30;;;;;;;3.28;85.07;100382.91;1807051;78;20993;-68
2020/12/20 05:29:27;;;;;;;22.85;12.82;;;;;;;3.28;85.05;100383.80;1806795;78;21185;-68
2020/12/20 05:31:54;;;;;;;26.33;14.00;;;;;;;3.31;85.03;100386.95;1787033;78;21088;-68
2020/12/20 05:34:40;;;;;;;26.37;13.68;;;;;;;3.31;84.99;100389.56;1777236;80;21583;-68
2020/12/20 05:37:11;;;;;;;24.55;14.05;;;;;;;3.30;84.98;100395.19;1779827;79;21069;-69
2020/12/20 05:39:49;;;;;;;24.43;13.58;;;;;;;3.35;84.94;100393.70;1809356;77;22325;-68
2020/12/20 05:42:29;;;;;;;25.35;12.95;;;;;;;3.32;84.91;100399.20;1783307;79;20952;-68
2020/12/20 05:45:07;;;;;;;26.60;13.65;;;;;;;3.31;84.87;100400.92;1752641;80;21375;-68
2020/12/20 05:47:39;;;;;;;22.48;12.53;;;;;;;3.31;84.83;100398.69;1786664;78;20999;-67
2020/12/20 05:50:08;;;;;;;25.97;13.32;;;;;;;3.32;84.84;100407.02;1815695;78;20914;-66
2020/12/20 05:52:37;;;;;;;23.83;12.58;;;;;;;3.31;84.82;100397.00;1733649;79;20941;-68
2020/12/20 05:55:12;;;;;;;22.13;12.53;;;;;;;3.33;84.81;100410.11;1802628;79;21569;-67
2020/12/20 05:57:40;;;;;;;24.67;12.35;;;;;;;3.33;84.78;100411.00;1791490;79;21363;-67
2020/12/20 06:00:08;;;;;;;23.98;12.82;;;;;;;3.33;84.77;100408.80;1791750;79;20970;-68
2020/12/20 06:02:43;;;;;;;23.45;12.00;;;;;;;3.33;84.77;100416.22;1802937;78;21544;-68
2020/12/20 06:05:11;;;;;;;23.18;12.82;;;;;;;3.34;84.75;100411.48;1755033;80;21317;-68
2020/12/20 06:07:40;;;;;;;22.22;12.05;;;;;;;3.34;84.72;100408.87;1755037;80;21486;-68
2020/12/20 06:10:11;;;;;;;21.10;11.43;;;;;;;3.34;84.67;100407.56;1735471;81;22321;-71
2020/12/20 06:12:41;;;;;;;23.92;13.00;;;;;;;3.33;84.64;100412.30;1736106;81;21114;-68
2020/12/20 06:15:10;;;;;;;24.92;12.05;;;;;;;3.33;84.65;100417.94;1750239;80;21506;-68
2020/12/20 06:17:44;;;;;;;22.95;12.55;;;;;;;3.34;84.64;100410.58;1750703;80;20939;-68
2020/12/20 06:20:19;;;;;;;23.98;13.10;;;;;;;3.36;84.65;100417.65;1722816;80;21599;-68
2020/12/20 06:22:55;;;;;;;23.92;13.40;;;;;;;3.37;84.62;100418.54;1750965;80;21371;-68
2020/12/20 06:28:09;;;;;;;22.98;14.18;;;;;;;3.43;84.60;100422.71;1810588;77;27605;-68
2020/12/20 06:30:38;;;;;;;20.68;12.58;;;;;;;3.45;84.58;100427.58;1792456;79;20966;-66
2020/12/20 06:33:12;;;;;;;22.17;12.30;;;;;;;3.53;84.48;100435.31;1799062;79;22158;-66
2020/12/20 06:35:41;;;;;;;;;;;;;;;3.54;84.39;100438.41;1795967;79;21495;-68
2020/12/20 06:38:13;;;;;;;25.48;13.18;;;;;;;3.54;84.32;100437.52;1801492;79;20151;-67
2020/12/20 06:40:43;;;;;;;;;;;;;;;3.53;84.33;100440.53;1787874;80;21453;-67
2020/12/20 06:43:11;;;;;;;26.10;12.78;;;;;;;3.52;84.31;100437.86;1785474;79;20481;-67
2020/12/20 06:45:44;;;;;;;21.07;11.53;;;;;;;3.46;84.22;100434.58;1785487;79;22074;-68
2020/12/20 06:48:13;;;;;;;22.37;11.60;;;;;;;3.44;84.22;100437.53;1797283;79;20946;-67
2020/12/20 06:50:46;;;;;;;27.77;12.15;;;;;;;3.43;84.25;100431.84;1791035;79;21478;-67
2020/12/20 06:53:17;;;;;;;20.00;10.43;;;;;;;3.45;84.31;100432.80;1803978;79;20934;-68
2020/12/20 06:55:46;;;;;;;18.15;9.95;;;;;;;3.43;84.32;100436.64;1798460;79;21569;-68
2020/12/20 06:58:17;;;;;;;20.52;10.75;;;;;;;3.45;84.33;100436.30;1805602;79;21363;-67
2020/12/20 07:00:53;;;;;;;19.07;9.90;;;;;;;3.45;84.31;100435.41;1803994;79;21618;-67
2020/12/20 07:03:33;;;;;;;16.62;10.15;;;;;;;3.43;84.27;100434.45;1797383;78;21105;-68
2020/12/20 07:06:16;;;;;;;20.45;10.53;;;;;;;3.44;84.32;100436.23;1798978;78;21519;-67
2020/12/20 07:09:07;;;;;;;17.10;9.93;;;;;;;3.44;84.36;100437.13;1750236;81;20995;-67
2020/12/20 07:11:47;;;;;;;16.73;9.83;;;;;;;3.46;84.34;100431.97;1756539;80;21606;-69
2020/12/20 07:14:22;;;;;;;17.15;9.83;;;;;;;3.46;84.32;100435.89;1768798;80;21092;-69
2020/12/20 07:16:50;;;;;;;18.50;9.23;;;;;;;3.43;84.29;100443.17;1718904;83;20994;-69
2020/12/20 07:19:26;;;;;;;16.67;9.98;;;;;;;3.42;84.35;100438.78;1718972;83;20966;-69
2020/12/20 07:21:59;;;;;;;20.37;11.05;;;;;;;3.44;84.38;100442.34;1751145;80;21282;-70
2020/12/20 07:24:29;;;;;;;20.37;11.12;;;;;;;3.45;84.34;100444.54;1750561;80;21190;-70
2020/12/20 07:27:01;;;;;;;18.65;10.20;;;;;;;3.44;84.32;100447.97;1746166;81;21042;-67
2020/12/20 07:29:49;;;;;;;18.92;10.58;;;;;;;3.45;84.34;100445.84;1739713;82;21031;-68
2020/12/20 07:32:18;;;;;;;17.02;9.28;;;;;;;3.44;84.36;100450.16;1663508;85;21204;-68
2020/12/20 07:34:48;;;;;;;14.23;8.33;;;;;;;3.46;84.41;100440.69;1666792;84;21564;-69
2020/12/20 07:37:16;;;;;;;16.52;8.65;;;;;;;3.50;84.43;100444.73;1664110;85;21375;-68
2020/12/20 07:39:45;;;;;;;13.78;8.18;;;;;;;3.52;84.42;100443.08;1664984;85;21600;-68
2020/12/20 07:42:14;;;;;;;15.48;8.60;;;;;;;3.53;84.42;100449.66;1663074;85;21145;-67
2020/12/20 07:44:45;;;;;;;16.62;8.30;;;;;;;3.53;84.42;100452.27;1637222;86;21283;-67
2020/12/20 07:47:16;;;;;;;15.78;8.98;;;;;;;3.55;84.43;100455.84;1616576;87;21578;-67
2020/12/20 07:49:44;;;;;;;17.27;9.63;;;;;;;3.56;84.40;100464.14;1648417;86;21299;-67
2020/12/20 07:52:15;;;;;;;16.77;9.68;;;;;;;3.56;84.39;100468.06;1648493;86;21588;-67
2020/12/20 07:54:43;;;;;;;16.67;9.43;;;;;;;3.55;84.36;100476.71;1670041;84;21140;-68
2020/12/20 07:57:18;;;;;;;18.70;10.15;;;;;;;3.56;84.43;100479.80;1671455;84;21060;-67
2020/12/20 07:59:46;;;;;;;15.48;9.78;;;;;;;3.59;84.49;100481.23;1715704;83;21509;-67
2020/12/20 08:02:21;;;;;;;19.55;10.28;;;;;;;3.64;84.51;100485.34;1699018;83;21373;-67
2020/12/20 08:04:49;;;;;;;21.60;10.82;;;;;;;3.66;84.48;100476.75;1685076;82;21082;-69
2020/12/20 08:07:18;;;;;;;22.05;10.63;;;;;;;3.69;84.52;100484.71;1709943;82;21468;-67
2020/12/20 08:09:47;;;;;;;19.50;9.93;;;;;;;3.71;84.51;100491.30;1710229;83;21461;-67
2020/12/20 08:12:17;;;;;;;18.05;10.10;;;;;;;3.73;84.52;100488.34;1684543;84;21604;-69
2020/12/20 08:14:46;;;;;;;20.45;11.00;;;;;;;3.76;84.49;100491.08;1662928;85;21602;-69
2020/12/20 08:17:19;;;;;;;17.32;10.15;;;;;;;3.78;84.46;100489.42;1681571;84;21046;-69
2020/12/20 08:19:50;;;;;;;20.15;10.82;;;;;;;3.79;84.49;100485.61;1681608;84;20951;-68
2020/12/20 08:22:20;;;;;;;18.92;10.03;;;;;;;3.82;84.48;100494.39;1696201;83;21105;-68
2020/12/20 08:24:50;;;;;;;21.30;10.98;;;;;;;3.83;84.48;100493.57;1710135;83;20947;-67
2020/12/20 08:27:27;;;;;;;18.52;10.48;;;;;;;3.86;84.45;100493.70;1710294;83;22257;-66
2020/12/20 08:29:57;;;;;;;18.95;10.70;;;;;;;3.89;84.46;100490.80;1691711;83;20963;-67
2020/12/20 08:32:37;;;;;;;19.30;10.72;;;;;;;3.91;84.45;100496.09;1713187;83;21493;-66
2020/12/20 08:35:17;;;;;;;22.48;10.95;;;;;;;3.90;84.43;100490.39;1671414;84;21002;-67
2020/12/20 08:37:53;;;;;;;19.80;10.20;;;;;;;3.92;84.41;100502.67;1670901;84;21497;-68
2020/12/20 08:40:21;;;;;;;20.57;11.35;;;;;;;3.94;84.33;100501.44;1676138;84;21463;-68
2020/12/20 08:45:29;;;;;;;18.15;10.50;;;;;;;3.94;84.19;100501.02;1834710;77;22790;-68
2020/12/20 08:48:02;;;;;;;21.35;10.72;;;;;;;3.92;84.24;100500.48;1785243;79;21009;-67
2020/12/20 08:50:31;;;;;;;;;;;;;;;3.94;84.23;100498.41;1787846;79;21143;-64
2020/12/20 08:53:04;;;;;;;21.27;10.35;;;;;;;3.96;84.22;100506.30;1785166;79;20138;-69
2020/12/20 08:55:35;;;;;;;20.72;10.72;;;;;;;3.96;84.22;100501.98;1794989;78;20989;-69
2020/12/20 08:58:08;;;;;;;22.07;9.83;;;;;;;3.99;84.22;100502.52;1753888;81;21579;-70
2020/12/20 09:00:37;;;;;;;18.48;10.13;;;;;;;4.00;84.25;100496.05;1754056;81;20970;-69
2020/12/20 09:03:06;;;;;;;17.60;10.90;;;;;;;4.02;84.23;100498.31;1746156;81;21385;-69
2020/12/20 09:05:35;;;;;;;20.62;11.20;;;;;;;4.05;84.21;100489.72;1752445;81;21089;-70
2020/12/20 09:08:05;;;;;;;23.95;13.48;;;;;;;4.09;84.20;100490.31;1751325;79;21013;-69
2020/12/20 09:10:36;;;;;;;23.25;13.25;;;;;;;4.11;84.20;100489.97;1741280;81;21277;-70
2020/12/20 09:13:06;;;;;;;20.80;11.15;;;;;;;4.12;84.17;100487.83;1752054;81;20919;-69
2020/12/20 09:15:36;;;;;;;17.60;10.63;;;;;;;4.13;84.11;100487.00;1734952;81;22137;-69
2020/12/20 09:18:25;;;;;;;20.57;11.50;;;;;;;4.14;84.08;100480.05;1739544;82;20990;-69
2020/12/20 09:20:53;;;;;;;24.95;12.63;;;;;;;4.14;84.02;100483.97;1739624;82;21557;-69
2020/12/20 09:23:23;;;;;;;21.52;11.45;;;;;;;4.16;84.04;100486.23;1745392;80;20946;-69
2020/12/20 09:26:00;;;;;;;22.35;11.28;;;;;;;4.18;84.04;100481.55;1755345;80;21136;-68
2020/12/20 09:28:32;;;;;;;21.62;11.35;;;;;;;4.20;84.02;100479.89;1745580;82;22347;-69
2020/12/20 09:31:01;;;;;;;20.75;11.10;;;;;;;4.20;83.98;100479.00;1745583;81;21035;-69
2020/12/20 09:33:36;;;;;;;19.35;11.08;;;;;;;4.21;83.92;100481.67;1716426;82;21609;-69
2020/12/20 09:36:15;;;;;;;23.10;12.80;;;;;;;4.22;83.87;100473.42;1758860;80;21121;-68
2020/12/20 09:38:45;;;;;;;25.92;13.08;;;;;;;4.22;83.84;100473.01;1744303;81;21077;-69
2020/12/20 09:41:16;;;;;;;24.45;13.43;;;;;;;4.24;83.84;100476.98;1747039;81;21444;-69
2020/12/20 09:43:46;;;;;;;21.93;11.57;;;;;;;4.24;83.81;100483.52;1744623;81;21647;-67
2020/12/20 09:46:24;;;;;;;22.80;12.30;;;;;;;4.23;83.76;100479.12;1815924;79;20927;-68
2020/12/20 09:48:55;;;;;;;20.37;11.35;;;;;;;4.24;83.77;100472.66;1784518;79;20938;-69
2020/12/20 09:51:24;;;;;;;20.40;11.48;;;;;;;4.26;83.75;100476.66;1785220;79;20997;-67
2020/12/20 09:53:56;;;;;;;23.15;12.40;;;;;;;4.29;83.74;100476.38;1785220;80;22311;-68
2020/12/20 09:56:28;;;;;;;20.12;11.08;;;;;;;4.31;83.68;100476.02;1750258;80;20899;-67
2020/12/20 09:58:56;;;;;;;20.77;11.20;;;;;;;4.33;83.63;100480.89;1808587;79;21010;-68
2020/12/20 10:01:26;;;;;;;18.57;10.48;;;;;;;4.36;83.57;100480.13;1748242;81;21455;-67
2020/12/20 10:03:54;;;;;;;20.82;11.90;;;;;;;4.38;83.48;100481.07;1779384;80;21159;-67
2020/12/20 10:06:23;;;;;;;21.65;11.78;;;;;;;4.39;83.40;100478.52;1771262;81;21993;-67
2020/12/20 10:08:54;;;;;;;22.25;12.43;;;;;;;4.41;83.32;100477.27;1740645;82;21011;-67
2020/12/20 10:11:23;;;;;;;21.55;11.50;;;;;;;4.38;83.21;100475.84;1740230;81;20953;-68
2020/12/20 10:13:53;;;;;;;20.45;12.07;;;;;;;4.36;83.15;100478.40;1736052;80;20977;-68
2020/12/20 10:16:23;;;;;;;19.82;11.97;;;;;;;4.36;83.09;100467.95;1764249;80;21056;-68
2020/12/20 10:18:53;;;;;;;23.42;12.37;;;;;;;4.38;83.08;100470.20;1764608;80;22212;-69
2020/12/20 10:21:22;;;;;;;25.57;12.50;;;;;;;4.39;83.08;100471.98;1764439;80;21096;-69
2020/12/20 10:23:51;;;;;;;25.72;12.00;;;;;;;4.39;83.02;100474.60;1764564;81;21479;-69
2020/12/20 10:26:25;;;;;;;21.70;11.40;;;;;;;4.36;82.94;100471.87;1731451;81;21034;-69
2020/12/20 10:28:54;;;;;;;25.05;11.08;;;;;;;4.37;82.93;100466.23;1732803;81;20935;-69
2020/12/20 10:31:23;;;;;;;18.48;11.10;;;;;;;4.40;82.84;100466.34;1807453;78;21252;-70
2020/12/20 10:33:51;;;;;;;22.75;11.10;;;;;;;4.39;82.73;100463.27;1807267;79;20938;-69
2020/12/20 10:36:20;;;;;;;19.90;10.40;;;;;;;4.39;82.66;100459.34;1807007;79;20955;-69
2020/12/20 10:38:50;;;;;;;25.70;11.45;;;;;;;4.40;82.67;100463.32;1740199;82;21105;-67
2020/12/20 10:41:19;;;;;;;19.77;11.25;;;;;;;4.41;82.69;100457.27;1743716;81;20884;-67
2020/12/20 10:43:47;;;;;;;18.57;10.75;;;;;;;4.42;82.68;100455.13;1786128;79;21482;-65
2020/12/20 10:46:18;;;;;;;20.65;10.78;;;;;;;4.47;82.68;100454.41;1773276;79;20975;-65
2020/12/20 10:48:47;;;;;;;17.02;10.78;;;;;;;4.50;82.62;100458.03;1768662;79;21023;-64
2020/12/20 10:51:19;;;;;;;18.85;11.28;;;;;;;4.52;82.62;100456.38;1748223;80;21017;-64
2020/12/20 10:53:50;;;;;;;20.62;12.13;;;;;;;4.56;82.60;100457.38;1761622;80;21568;-65
2020/12/20 10:56:19;;;;;;;49.50;30.27;;;;;;;4.57;82.55;100451.33;1759560;80;21582;-64
2020/12/20 10:58:49;;;;;;;862.10;551.55;;;;;;;4.60;82.53;100450.13;1758689;80;21082;-65
2020/12/20 11:01:19;;;;;;;1169.45;729.67;;;;;;;4.61;82.47;100447.58;1762849;80;21608;-64
2020/12/20 11:03:48;;;;;;;1999.90;960.95;;;;;;;4.62;82.50;100451.08;1728807;82;21168;-64
2020/12/20 11:06:23;;;;;;;1999.90;946.63;;;;;;;4.64;82.55;100448.11;1738681;81;21077;-65
2020/12/20 11:08:51;;;;;;;1421.65;844.30;;;;;;;4.67;82.57;100444.31;1791105;78;21145;-65
2020/12/20 11:11:24;;;;;;;1004.00;709.13;;;;;;;4.70;82.54;100440.50;1796192;79;21524;-66
2020/12/20 11:13:53;;;;;;;1005.90;727.28;;;;;;;4.71;82.44;100441.86;1728770;82;21094;-65
2020/12/20 11:16:21;;;;;;;1917.13;993.77;;;;;;;4.71;82.30;100445.79;1747908;80;21161;-66
2020/12/20 11:18:51;;;;;;;1138.33;794.73;;;;;;;4.72;82.38;100452.80;1768062;79;21173;-69
2020/12/20 11:21:22;;;;;;;548.00;411.62;;;;;;;4.74;82.38;100448.97;1740372;81;21909;-66
2020/12/20 11:23:51;;;;;;;275.65;213.25;;;;;;;4.78;82.33;100439.52;1776925;79;21193;-64
2020/12/20 11:26:25;;;;;;;318.60;252.80;;;;;;;4.81;82.19;100443.55;1740046;79;21034;-65
2020/12/20 11:28:54;;;;;;;460.30;355.27;;;;;;;4.86;82.09;100446.81;1780266;79;21495;-64
2020/12/20 11:31:24;;;;;;;244.18;178.30;;;;;;;4.89;82.08;100439.50;1777328;79;21057;-65
2020/12/20 11:33:53;;;;;;;135.15;90.75;;;;;;;4.91;82.07;100445.25;1733381;81;22334;-64
2020/12/20 11:36:23;;;;;;;411.92;251.85;;;;;;;4.91;82.01;100443.95;1730771;82;21043;-65
2020/12/20 11:38:52;;;;;;;234.27;148.68;;;;;;;4.93;81.98;100452.73;1724444;81;21188;-64
2020/12/20 11:41:24;;;;;;;127.38;79.03;;;;;;;4.96;81.96;100450.23;1727838;82;21817;-65